Terminal Aerodrome Forecast
Issued by NWS

Home | Current Version | Previous Version | Text Only | Print | Product List | Glossary On
Versions: 1 2 3 4 5 6 7 8 9 10 11 12 13 14 15 16 17 18 19 20 21 22 23
000
FTUS45 KBOU 260528
TAFAPA
TAF
KAPA 260528Z 2606/2706 16007KT P6SM FEW080 BKN100 BKN220
     FM260700 17007KT P6SM -SHRA SCT050 OVC080
     FM260900 19008KT P6SM VCSH SCT020 OVC050
      TEMPO 2610/2614 5SM -SHRA BR SCT010 OVC030
     FM261400 30010KT P6SM VCFG SCT010 OVC020
     FM261700 VRB06KT P6SM SCT025 BKN050
     FM262100 06009KT P6SM SCT060 BKN150 PROB30 2621/2702 VRB15G25KT
      P6SM -TSRA SCT050CB BKN120
     FM270200 15010KT P6SM SCT080 BKN150=

USA.gov is the U.S. government's official web portal to all federal, state and local government web resources and services.